createdAt,value
2019-01-16T00:01:40.692Z,72.73
2019-01-16T00:04:37.917Z,72.90
2019-01-16T00:07:29.036Z,72.50
2019-01-16T00:10:24.895Z,72.53
2019-01-16T00:13:04.769Z,72.71
2019-01-16T00:15:47.993Z,72.14
2019-01-16T00:18:36.570Z,72.01
2019-01-16T00:21:20.103Z,71.94
2019-01-16T00:24:06.807Z,72.18
2019-01-16T00:27:05.134Z,72.60
2019-01-16T00:30:00.034Z,72.59
2019-01-16T00:32:46.974Z,71.86
2019-01-16T00:35:41.473Z,71.29
2019-01-16T00:38:32.344Z,70.98
2019-01-16T00:41:14.915Z,71.14
2019-01-16T00:43:56.214Z,71.05
2019-01-16T00:46:43.299Z,71.48
2019-01-16T00:49:24.431Z,71.50
2019-01-16T00:52:18.544Z,71.23
2019-01-16T00:55:05.956Z,71.68
2019-01-16T00:58:00.144Z,72.11
2019-01-16T01:00:44.853Z,71.32
2019-01-16T01:03:32.677Z,71.14
2019-01-16T01:06:17.863Z,71.43
2019-01-16T01:09:07.306Z,71.20
2019-01-16T01:11:55.392Z,71.25
2019-01-16T01:14:46.110Z,70.72
2019-01-16T01:17:29.867Z,71.04
2019-01-16T01:20:14.059Z,70.65
2019-01-16T01:23:14.461Z,71.20
2019-01-16T01:26:08.257Z,71.26
2019-01-16T01:28:55.157Z,71.70
2019-01-16T01:31:46.631Z,71.93
2019-01-16T01:34:23.327Z,72.06
2019-01-16T01:37:11.219Z,72.01
2019-01-16T01:40:02.129Z,72.03
2019-01-16T01:43:02.479Z,71.92
2019-01-16T01:45:58.876Z,72.44
2019-01-16T01:48:53.408Z,72.50
2019-01-16T01:51:41.361Z,72.66
2019-01-16T01:54:35.096Z,73.01
2019-01-16T01:57:21.875Z,73.41
2019-01-16T02:00:22.020Z,73.84
2019-01-16T02:03:18.945Z,73.82
2019-01-16T02:06:09.824Z,74.07
2019-01-16T02:08:57.728Z,74.21
2019-01-16T02:11:44.195Z,74.49
2019-01-16T02:14:37.888Z,74.49
2019-01-16T02:17:32.203Z,74.81
2019-01-16T02:20:20.172Z,75.61
2019-01-16T02:23:23.294Z,75.23
2019-01-16T02:26:18.356Z,74.92
2019-01-16T02:29:05.068Z,75.11
2019-01-16T02:31:57.770Z,74.83
2019-01-16T02:34:54.948Z,75.38
2019-01-16T02:37:54.665Z,76.53
2019-01-16T02:40:31.771Z,76.57
2019-01-16T02:43:21.551Z,77.05
2019-01-16T02:46:10.136Z,76.96
2019-01-16T02:48:55.825Z,77.51
2019-01-16T02:51:38.890Z,76.36
2019-01-16T02:54:31.641Z,76.54
2019-01-16T02:57:24.900Z,76.32
2019-01-16T03:00:05.796Z,76.42
2019-01-16T03:02:53.630Z,76.21
2019-01-16T03:05:50.989Z,75.87
2019-01-16T03:08:39.739Z,75.07
2019-01-16T03:11:18.098Z,75.21
2019-01-16T03:14:05.916Z,76.72
2019-01-16T03:16:50.727Z,76.88
2019-01-16T03:19:37.533Z,77.14
2019-01-16T03:22:18.028Z,77.22
2019-01-16T03:25:04.615Z,76.64
2019-01-16T03:27:58.214Z,76.82
2019-01-16T03:30:58.075Z,76.75
2019-01-16T03:33:46.027Z,76.46
2019-01-16T03:36:43.284Z,77.21
2019-01-16T03:39:31.086Z,78.00
2019-01-16T03:42:17.940Z,78.79
2019-01-16T03:44:56.072Z,78.98
2019-01-16T03:47:43.166Z,79.74
2019-01-16T03:50:40.649Z,78.38
2019-01-16T03:53:30.972Z,79.36
2019-01-16T03:56:17.586Z,77.81
2019-01-16T03:59:12.219Z,77.75
2019-01-16T04:02:12.564Z,78.22
2019-01-16T04:05:06.390Z,78.46
2019-01-16T04:07:50.715Z,78.47
2019-01-16T04:10:28.238Z,78.36
2019-01-16T04:13:18.929Z,78.13
2019-01-16T04:16:22.009Z,77.52
2019-01-16T04:19:10.090Z,78.19
2019-01-16T04:21:51.797Z,79.33
2019-01-16T04:24:46.069Z,78.41
2019-01-16T04:27:28.308Z,78.29
2019-01-16T04:30:14.610Z,78.72
2019-01-16T04:33:20.902Z,78.34
2019-01-16T04:36:07.541Z,78.23
2019-01-16T04:38:44.907Z,79.01
2019-01-16T04:41:38.506Z,78.74
2019-01-16T04:44:25.474Z,78.63
2019-01-16T04:47:28.383Z,78.46
2019-01-16T04:50:10.137Z,78.56
2019-01-16T04:53:02.013Z,78.75
2019-01-16T04:55:48.541Z,79.38
2019-01-16T04:58:33.187Z,79.15
2019-01-16T05:01:14.451Z,78.96
2019-01-16T05:04:00.871Z,80.11
2019-01-16T05:06:58.138Z,80.77
2019-01-16T05:09:40.881Z,79.28
2019-01-16T05:12:18.401Z,79.54
2019-01-16T05:14:58.752Z,79.75
2019-01-16T05:17:49.370Z,80.03
2019-01-16T05:20:44.378Z,80.68
2019-01-16T05:23:23.736Z,80.34
2019-01-16T05:26:29.859Z,81.54
2019-01-16T05:29:15.829Z,80.75
2019-01-16T05:32:01.923Z,78.76
2019-01-16T05:35:01.882Z,80.54
2019-01-16T05:37:54.476Z,81.99
2019-01-16T05:40:41.112Z,82.27
2019-01-16T05:43:28.992Z,83.26
2019-01-16T05:46:15.580Z,82.81
2019-01-16T05:49:09.906Z,84.11
2019-01-16T05:51:56.692Z,84.04
2019-01-16T05:54:47.545Z,84.11
2019-01-16T05:57:34.152Z,84.19
2019-01-16T06:00:25.211Z,84.83
2019-01-16T06:03:14.486Z,85.48
2019-01-16T06:06:01.422Z,86.14
2019-01-16T06:08:57.749Z,86.44
2019-01-16T06:11:44.474Z,86.56
2019-01-16T06:14:32.290Z,85.74
2019-01-16T06:17:29.462Z,85.90
2019-01-16T06:20:23.325Z,85.96
2019-01-16T06:23:14.345Z,85.95
2019-01-16T06:25:52.932Z,86.00
2019-01-16T06:28:31.508Z,85.40
2019-01-16T06:31:17.933Z,85.93
2019-01-16T06:34:18.134Z,85.88
2019-01-16T06:37:08.804Z,86.39
2019-01-16T06:39:59.479Z,86.42
2019-01-16T06:42:53.404Z,86.62
2019-01-16T06:45:39.717Z,86.94
2019-01-16T06:48:33.803Z,86.50
2019-01-16T06:51:07.975Z,86.84
2019-01-16T06:53:52.942Z,87.12
2019-01-16T06:56:32.307Z,87.65
2019-01-16T06:59:18.090Z,88.24
2019-01-16T07:02:04.760Z,88.93
2019-01-16T07:04:51.232Z,89.12
2019-01-16T07:07:40.836Z,89.60
2019-01-16T07:10:18.136Z,89.82
2019-01-16T07:12:55.415Z,90.32
2019-01-16T07:15:49.630Z,90.52
2019-01-16T07:18:33.786Z,91.12
2019-01-16T07:21:24.731Z,91.39
2019-01-16T07:24:18.536Z,91.46
2019-01-16T07:27:03.283Z,91.37
2019-01-16T07:29:56.928Z,91.77
2019-01-16T07:32:37.130Z,92.18
2019-01-16T07:35:25.650Z,92.24
2019-01-16T07:38:22.296Z,92.31
2019-01-16T07:41:02.941Z,92.02
2019-01-16T07:43:51.870Z,91.94
2019-01-16T07:46:33.508Z,91.93
2019-01-16T07:49:19.981Z,92.39
2019-01-16T07:52:12.473Z,92.19
2019-01-16T07:54:58.904Z,92.87
2019-01-16T07:57:35.275Z,93.18
2019-01-16T08:00:33.634Z,93.28
2019-01-16T08:03:16.720Z,93.05
2019-01-16T08:06:03.314Z,92.70
2019-01-16T08:09:02.542Z,92.77
2019-01-16T08:11:43.226Z,92.63
2019-01-16T08:14:30.011Z,92.54
2019-01-16T08:17:30.213Z,92.74
2019-01-16T08:20:24.711Z,92.49
2019-01-16T08:23:09.749Z,92.65
2019-01-16T08:26:09.838Z,92.17
2019-01-16T08:28:50.282Z,91.58
2019-01-16T08:31:38.233Z,91.23
2019-01-16T08:34:26.209Z,90.31
2019-01-16T08:37:23.617Z,89.70
2019-01-16T08:40:10.372Z,88.71
2019-01-16T08:42:56.791Z,88.33
2019-01-16T08:45:51.922Z,87.36
2019-01-16T08:48:38.755Z,87.61
2019-01-16T08:51:21.164Z,87.25
2019-01-16T08:54:08.110Z,87.00
2019-01-16T08:56:45.595Z,86.55
2019-01-16T08:59:35.711Z,86.08
2019-01-16T09:02:29.882Z,84.73
2019-01-16T09:05:24.195Z,84.81
2019-01-16T09:08:12.140Z,84.89
2019-01-16T09:11:09.583Z,85.31
2019-01-16T09:14:00.655Z,85.32
2019-01-16T09:16:42.186Z,85.00
2019-01-16T09:19:25.590Z,84.33
2019-01-16T09:22:12.250Z,84.75
2019-01-16T09:24:59.127Z,84.83
2019-01-16T09:27:58.128Z,84.32
2019-01-16T09:30:45.964Z,84.32
2019-01-16T09:33:32.925Z,83.58
2019-01-16T09:36:12.671Z,83.55
2019-01-16T09:38:59.639Z,82.77
2019-01-16T09:41:46.957Z,82.37
2019-01-16T09:44:28.956Z,82.22
2019-01-16T09:47:15.901Z,81.69
2019-01-16T09:50:02.943Z,81.50
2019-01-16T09:53:03.392Z,81.20
2019-01-16T09:55:50.367Z,79.82
2019-01-16T09:58:41.274Z,80.29
2019-01-16T10:01:32.104Z,80.64
2019-01-16T10:04:18.914Z,81.60
2019-01-16T10:06:59.510Z,80.46
2019-01-16T10:09:40.409Z,79.90
2019-01-16T10:12:27.116Z,79.48
2019-01-16T10:15:16.281Z,78.55
2019-01-16T10:18:19.602Z,79.42
2019-01-16T10:21:09.626Z,78.88
2019-01-16T10:24:06.885Z,79.06
2019-01-16T10:27:02.627Z,78.96
2019-01-16T10:30:05.699Z,78.27
2019-01-16T10:32:54.484Z,78.91
2019-01-16T10:36:00.964Z,76.46
2019-01-16T10:38:50.830Z,75.62
2019-01-16T10:41:47.760Z,76.81
2019-01-16T10:44:45.053Z,77.47
2019-01-16T10:47:26.525Z,74.96
2019-01-16T10:50:27.292Z,75.51
2019-01-16T10:53:18.082Z,76.22
2019-01-16T10:56:09.005Z,75.81
2019-01-16T10:58:51.822Z,75.78
2019-01-16T11:01:39.726Z,75.38
2019-01-16T11:04:30.810Z,74.50
2019-01-16T11:07:10.926Z,74.70
2019-01-16T11:09:55.233Z,74.08
2019-01-16T11:12:54.072Z,75.53
2019-01-16T11:15:32.581Z,73.72
2019-01-16T11:18:29.810Z,73.06
2019-01-16T11:21:17.806Z,73.27
2019-01-16T11:24:05.113Z,72.71
2019-01-16T11:26:52.013Z,72.51
2019-01-16T11:29:29.150Z,72.67
2019-01-16T11:32:32.292Z,70.96
2019-01-16T11:35:16.715Z,71.33
2019-01-16T11:38:07.039Z,71.10
2019-01-16T11:40:57.770Z,71.61
2019-01-16T11:43:41.962Z,72.12
2019-01-16T11:46:32.646Z,69.99
2019-01-16T11:49:25.884Z,69.73
2019-01-16T11:52:12.388Z,69.79
2019-01-16T11:54:59.202Z,69.81
2019-01-16T11:58:05.696Z,71.08
2019-01-16T12:00:49.781Z,71.68
2019-01-16T12:03:38.193Z,70.28
2019-01-16T12:06:20.669Z,71.33
2019-01-16T12:09:07.207Z,71.52
2019-01-16T12:12:07.286Z,69.96
2019-01-16T12:14:54.130Z,69.53
2019-01-16T12:17:51.120Z,69.43
2019-01-16T12:20:39.571Z,71.28
2019-01-16T12:23:34.901Z,71.12
2019-01-16T12:26:15.061Z,70.20
2019-01-16T12:28:57.803Z,69.93
2019-01-16T12:31:44.232Z,71.14
2019-01-16T12:34:30.795Z,70.90
2019-01-16T12:37:16.538Z,71.88
2019-01-16T12:40:03.458Z,72.16
2019-01-16T12:42:57.351Z,69.80
2019-01-16T12:45:35.254Z,71.62
2019-01-16T12:48:32.299Z,71.31
2019-01-16T12:51:33.596Z,71.14
2019-01-16T12:54:17.981Z,71.75
2019-01-16T12:57:08.723Z,71.17
2019-01-16T12:59:56.128Z,71.54
2019-01-16T13:02:41.103Z,70.08
2019-01-16T13:05:28.398Z,69.16
2019-01-16T13:08:19.000Z,69.24
2019-01-16T13:11:06.360Z,69.76
2019-01-16T13:13:49.216Z,71.56
2019-01-16T13:16:37.076Z,71.11
2019-01-16T13:19:17.026Z,69.67
2019-01-16T13:22:00.049Z,68.78
2019-01-16T13:24:41.979Z,69.79
2019-01-16T13:27:24.593Z,69.54
2019-01-16T13:30:11.690Z,70.20
2019-01-16T13:32:58.671Z,70.36
2019-01-16T13:35:35.215Z,69.72
2019-01-16T13:38:12.232Z,71.12
2019-01-16T13:40:59.469Z,70.36
2019-01-16T13:43:48.100Z,70.39
2019-01-16T13:46:31.896Z,68.96
2019-01-16T13:49:18.673Z,70.09
2019-01-16T13:52:18.909Z,69.62
2019-01-16T13:54:55.424Z,70.27
2019-01-16T13:57:42.249Z,70.05
2019-01-16T14:00:23.929Z,70.19
2019-01-16T14:03:08.107Z,71.12
2019-01-16T14:06:14.510Z,71.57
2019-01-16T14:09:17.871Z,71.82
2019-01-16T14:12:04.500Z,71.60
2019-01-16T14:15:10.879Z,71.80
2019-01-16T14:17:59.427Z,71.84
2019-01-16T14:20:47.240Z,71.83
2019-01-16T14:23:41.343Z,72.82
2019-01-16T14:26:29.901Z,72.67
2019-01-16T14:29:16.916Z,72.87
2019-01-16T14:32:03.705Z,74.37
2019-01-16T14:35:00.482Z,73.11
2019-01-16T14:37:53.471Z,72.87
2019-01-16T14:40:40.345Z,73.25
2019-01-16T14:43:22.505Z,73.64
2019-01-16T14:46:22.765Z,74.04
2019-01-16T14:49:09.585Z,75.35
2019-01-16T14:51:59.662Z,74.14
2019-01-16T14:54:41.593Z,73.99
2019-01-16T14:57:22.555Z,74.53
2019-01-16T15:00:13.342Z,73.73
2019-01-16T15:02:59.884Z,72.11
2019-01-16T15:05:53.869Z,72.31
2019-01-16T15:08:40.903Z,73.85
2019-01-16T15:11:21.107Z,75.42
2019-01-16T15:14:15.058Z,76.07
2019-01-16T15:17:03.026Z,76.18
2019-01-16T15:19:49.730Z,76.72
2019-01-16T15:22:32.789Z,76.99
2019-01-16T15:25:13.170Z,77.48
2019-01-16T15:28:00.963Z,78.36
2019-01-16T15:30:44.054Z,79.39
2019-01-16T15:33:32.009Z,79.43
2019-01-16T15:36:35.084Z,79.24
2019-01-16T15:39:33.541Z,79.21
2019-01-16T15:42:20.501Z,79.46
2019-01-16T15:45:09.011Z,80.10
2019-01-16T15:47:53.157Z,80.25
2019-01-16T15:50:39.793Z,80.54
2019-01-16T15:53:25.270Z,80.71
2019-01-16T15:56:22.321Z,81.48
2019-01-16T15:59:16.174Z,81.71
2019-01-16T16:02:02.455Z,81.93
2019-01-16T16:04:56.540Z,81.57
2019-01-16T16:07:37.641Z,82.36
2019-01-16T16:10:36.542Z,82.51
2019-01-16T16:13:20.583Z,82.90
2019-01-16T16:16:08.149Z,82.91
2019-01-16T16:19:02.237Z,82.24
2019-01-16T16:21:52.544Z,82.61
2019-01-16T16:24:43.664Z,83.14
2019-01-16T16:27:44.637Z,82.85
2019-01-16T16:30:25.294Z,82.88
2019-01-16T16:33:03.018Z,83.89
2019-01-16T16:35:50.250Z,83.11
2019-01-16T16:38:36.261Z,83.25
2019-01-16T16:41:32.205Z,84.02
2019-01-16T16:44:22.890Z,84.67
2019-01-16T16:47:18.950Z,83.60
2019-01-16T16:50:12.979Z,83.74
2019-01-16T16:52:59.775Z,83.67
2019-01-16T16:55:46.470Z,84.00
2019-01-16T16:58:33.060Z,84.46
2019-01-16T17:01:20.069Z,84.70
2019-01-16T17:04:13.166Z,84.87
2019-01-16T17:07:10.065Z,85.21
2019-01-16T17:09:56.728Z,85.67
2019-01-16T17:12:49.557Z,85.94
2019-01-16T17:15:39.441Z,85.82
2019-01-16T17:18:15.132Z,85.87
2019-01-16T17:21:02.659Z,85.95
2019-01-16T17:23:53.386Z,85.93
2019-01-16T17:26:42.137Z,86.60
2019-01-16T17:29:32.960Z,86.79
2019-01-16T17:32:28.703Z,86.31
2019-01-16T17:35:17.558Z,86.06
2019-01-16T17:38:14.794Z,86.37
2019-01-16T17:41:17.901Z,85.97
2019-01-16T17:44:01.701Z,85.98
2019-01-16T17:46:53.931Z,86.55
2019-01-16T17:50:00.244Z,86.30
2019-01-16T17:52:47.044Z,87.19
2019-01-16T17:55:41.145Z,86.32
2019-01-16T17:58:28.898Z,85.77
2019-01-16T18:01:11.202Z,85.52
2019-01-16T18:04:00.500Z,84.73
2019-01-16T18:06:42.082Z,85.86
2019-01-16T18:09:27.594Z,87.11
2019-01-16T18:12:15.584Z,88.46
2019-01-16T18:15:02.987Z,89.17
2019-01-16T18:18:02.988Z,89.45
2019-01-16T18:20:45.341Z,90.02
2019-01-16T18:23:33.305Z,89.84
2019-01-16T18:26:19.754Z,89.91
2019-01-16T18:28:59.376Z,89.46
2019-01-16T18:31:53.381Z,89.37
2019-01-16T18:34:40.044Z,89.33
2019-01-16T18:37:43.288Z,89.62
2019-01-16T18:40:19.962Z,89.66
2019-01-16T18:43:11.919Z,89.68
2019-01-16T18:46:02.716Z,89.92
2019-01-16T18:48:40.014Z,90.69
2019-01-16T18:51:40.171Z,90.05
2019-01-16T18:54:26.927Z,91.08
2019-01-16T18:57:13.657Z,92.13
2019-01-16T19:00:01.556Z,92.69
2019-01-16T19:03:08.097Z,92.81
2019-01-16T19:05:44.425Z,93.23
2019-01-16T19:08:44.350Z,92.92
2019-01-16T19:11:31.175Z,92.47
2019-01-16T19:14:25.608Z,91.97
2019-01-16T19:17:31.660Z,91.76
2019-01-16T19:20:21.924Z,90.69
2019-01-16T19:23:08.684Z,90.21
2019-01-16T19:26:00.922Z,90.25
2019-01-16T19:29:04.251Z,89.66
2019-01-16T19:32:01.562Z,89.90
2019-01-16T19:34:50.378Z,90.86
2019-01-16T19:37:41.590Z,91.35
2019-01-16T19:40:32.762Z,91.51
2019-01-16T19:43:19.561Z,91.83
2019-01-16T19:46:10.629Z,92.58
2019-01-16T19:48:55.975Z,92.25
2019-01-16T19:51:44.867Z,92.18
2019-01-16T19:54:42.643Z,92.20
2019-01-16T19:57:33.614Z,92.57
2019-01-16T20:00:15.362Z,92.95
2019-01-16T20:03:02.047Z,92.85
2019-01-16T20:06:05.535Z,93.33
2019-01-16T20:09:05.461Z,93.66
2019-01-16T20:11:52.250Z,93.75
2019-01-16T20:14:32.030Z,94.27
2019-01-16T20:17:23.200Z,93.75
2019-01-16T20:20:23.551Z,93.72
2019-01-16T20:23:11.167Z,93.96
2019-01-16T20:25:58.201Z,93.73
2019-01-16T20:28:48.903Z,93.87
2019-01-16T20:31:55.352Z,94.31
2019-01-16T20:34:34.297Z,94.58
2019-01-16T20:37:20.550Z,94.74
2019-01-16T20:40:08.517Z,94.87
2019-01-16T20:43:01.646Z,94.82
2019-01-16T20:46:01.937Z,95.11
2019-01-16T20:48:43.275Z,94.65
2019-01-16T20:51:40.348Z,94.56
2019-01-16T20:54:34.195Z,94.49
2019-01-16T20:57:20.821Z,94.68
2019-01-16T21:00:07.659Z,94.03
2019-01-16T21:03:04.225Z,94.10
2019-01-16T21:05:51.017Z,94.95
2019-01-16T21:08:37.678Z,95.81
2019-01-16T21:11:31.520Z,96.59
2019-01-16T21:14:12.047Z,97.74
2019-01-16T21:17:15.029Z,98.82
2019-01-16T21:20:05.962Z,99.51
2019-01-16T21:22:47.974Z,100.00
2019-01-16T21:25:42.203Z,100.00
2019-01-16T21:28:42.347Z,100.00
2019-01-16T21:31:39.122Z,100.00
2019-01-16T21:34:26.801Z,100.00
2019-01-16T21:37:20.814Z,100.00
2019-01-16T21:40:07.437Z,100.00
2019-01-16T21:43:06.133Z,100.00
2019-01-16T21:45:52.926Z,100.00
2019-01-16T21:48:48.802Z,100.00
2019-01-16T21:51:35.307Z,100.00
2019-01-16T21:54:33.656Z,100.00
2019-01-16T21:57:30.843Z,100.00
2019-01-16T22:03:03.086Z,100.00
2019-01-16T22:05:54.147Z,100.00
2019-01-16T22:08:32.108Z,100.00
2019-01-16T22:11:11.786Z,100.00
2019-01-16T22:13:58.664Z,100.00
2019-01-16T22:16:52.634Z,100.00
2019-01-16T22:19:52.543Z,100.00
2019-01-16T22:22:39.038Z,100.00
2019-01-16T22:25:20.143Z,100.00
2019-01-16T22:28:20.182Z,100.00
2019-01-16T22:31:07.921Z,100.00
2019-01-16T22:33:54.465Z,100.00
2019-01-16T22:36:37.335Z,100.00
2019-01-16T22:39:25.749Z,100.00
2019-01-16T22:42:06.617Z,100.00
2019-01-16T22:44:48.019Z,100.00
2019-01-16T22:47:31.761Z,100.00
2019-01-16T22:50:18.765Z,100.00
2019-01-16T22:53:05.335Z,100.00
2019-01-16T22:55:48.369Z,100.00
2019-01-16T22:58:39.431Z,100.00
2019-01-16T23:01:17.362Z,100.00
2019-01-16T23:04:17.459Z,100.00
2019-01-16T23:07:05.348Z,100.00
2019-01-16T23:09:43.081Z,100.00
2019-01-16T23:12:29.561Z,100.00
2019-01-16T23:15:32.452Z,100.00
2019-01-16T23:18:13.500Z,100.00
2019-01-16T23:21:10.585Z,99.71
2019-01-16T23:23:57.300Z,97.17
2019-01-16T23:26:57.403Z,95.51
2019-01-16T23:29:36.288Z,94.69
2019-01-16T23:32:23.574Z,92.71
2019-01-16T23:35:03.043Z,92.88
2019-01-16T23:37:51.158Z,93.02
2019-01-16T23:40:39.231Z,91.90
2019-01-16T23:43:30.304Z,90.64
2019-01-16T23:46:24.975Z,88.74
2019-01-16T23:49:15.659Z,87.89
2019-01-16T23:52:00.277Z,87.31
2019-01-16T23:54:48.336Z,86.66
2019-01-16T23:57:45.104Z,84.61
